Observations for VENEZIA TESSERA, Italy (LIPZ)

LIPZ 260450Z 02007KT CAVOK 22/17 Q1017 NOSIG
LIPZ 260420Z 01007KT CAVOK 22/17 Q1017 NOSIG
LIPZ 260350Z 02007KT CAVOK 22/17 Q1017 NOSIG
LIPZ 260320Z 02008KT CAVOK 22/18 Q1017 NOSIG
LIPZ 260250Z 02007KT CAVOK 22/18 Q1017 NOSIG
LIPZ 260220Z 04007KT CAVOK 22/18 Q1017 NOSIG
LIPZ 260150Z 03008KT CAVOK 22/18 Q1017 NOSIG
LIPZ 260120Z 03007KT CAVOK 22/18 Q1017 NOSIG
LIPZ 260050Z 02007KT CAVOK 22/18 Q1017 NOSIG
LIPZ 260020Z 01008KT CAVOK 23/19 Q1017 NOSIG
LIPZ 252350Z 02008KT CAVOK 23/19 Q1017 NOSIG
LIPZ 252320Z 01006KT CAVOK 23/19 Q1017 NOSIG
LIPZ 252250Z 03006KT CAVOK 24/20 Q1017 NOSIG
LIPZ 252220Z 04006KT CAVOK 23/19 Q1017 NOSIG
LIPZ 252150Z 04005KT CAVOK 24/19 Q1017 NOSIG
LIPZ 252120Z 05005KT CAVOK 25/19 Q1017 NOSIG
LIPZ 252050Z 03005KT CAVOK 25/19 Q1017 NOSIG
LIPZ 252020Z 35004KT 290V030 CAVOK 26/20 Q1017 NOSIG
LIPZ 251950Z VRB02KT CAVOK 25/20 Q1017 NOSIG
LIPZ 251920Z 35003KT 320V030 CAVOK 27/19 Q1017 NOSIG
LIPZ 251850Z 33003KT 310V040 CAVOK 27/20 Q1017 NOSIG
LIPZ 251820Z 32003KT 290V360 CAVOK 27/21 Q1016 NOSIG
LIPZ 251750Z 31004KT 260V030 CAVOK 28/20 Q1016 NOSIG
LIPZ 251720Z VRB03KT CAVOK 29/20 Q1016 NOSIG
LIPZ 251650Z VRB02KT CAVOK 29/20 Q1016 NOSIG
LIPZ 251620Z VRB01KT CAVOK 30/19 Q1016 NOSIG
LIPZ 251550Z 19003KT CAVOK 29/19 Q1016 NOSIG
LIPZ 251520Z VRB02KT CAVOK 29/20 Q1016 NOSIG
LIPZ 251450Z 19003KT 150V230 CAVOK 29/19 Q1016 NOSIG
LIPZ 251420Z 19003KT 140V220 CAVOK 29/19 Q1016 NOSIG
LIPZ 251350Z 16003KT 130V200 CAVOK 29/19 Q1016 NOSIG
LIPZ 251320Z 16003KT CAVOK 29/18 Q1016 NOSIG
LIPZ 251250Z 15003KT 120V180 CAVOK 29/19 Q1017 NOSIG
LIPZ 251220Z 13005KT CAVOK 28/19 Q1017 NOSIG
LIPZ 251150Z 36004KT 320V060 CAVOK 29/19 Q1017 NOSIG
LIPZ 251120Z 01005KT 310V050 CAVOK 29/18 Q1017 NOSIG
LIPZ 251050Z 04005KT 350V100 CAVOK 28/18 Q1017 NOSIG
LIPZ 251020Z 05005KT 360V100 CAVOK 29/18 Q1017 NOSIG
LIPZ 250950Z 02006KT 350V050 CAVOK 28/18 Q1018 NOSIG
LIPZ 250920Z 01008KT CAVOK 27/18 Q1018 NOSIG
LIPZ 250850Z 03006KT 350V050 CAVOK 26/18 Q1018 NOSIG
LIPZ 250820Z 03006KT 360V060 CAVOK 26/17 Q1018 NOSIG
LIPZ 250750Z 01007KT CAVOK 24/18 Q1018 NOSIG
LIPZ 250720Z 02007KT CAVOK 24/17 Q1017 NOSIG
LIPZ 250650Z 01008KT CAVOK 24/18 Q1017 NOSIG
LIPZ 250620Z 35006KT CAVOK 23/19 Q1017 NOSIG
LIPZ 250550Z 35006KT CAVOK 22/19 Q1017 NOSIG
LIPZ 250520Z 33005KT 310V010 CAVOK 21/18 Q1017 NOSIG
LIPZ 250450Z 34005KT CAVOK 20/18 Q1017 NOSIG
LIPZ 250420Z 33003KT 300V050 CAVOK 20/18 Q1017 NOSIG